createdAt,value
2023-04-29T00:00:02.753Z,944.97
2023-04-29T00:00:13.743Z,944.99
2023-04-29T00:00:24.738Z,945.00
2023-04-29T00:00:35.739Z,945.00
2023-04-29T00:00:46.738Z,944.99
2023-04-29T00:00:57.739Z,944.98
2023-04-29T00:01:08.717Z,944.97
2023-04-29T00:01:19.710Z,944.96
2023-04-29T00:01:30.777Z,944.95
2023-04-29T00:01:41.736Z,944.95
2023-04-29T00:01:52.802Z,944.96
2023-04-29T00:02:03.771Z,944.96
2023-04-29T00:02:15.768Z,944.96
2023-04-29T00:02:29.822Z,944.97
2023-04-29T00:02:38.879Z,944.97
2023-04-29T00:02:49.948Z,944.98
2023-04-29T00:03:01.860Z,945.00
2023-04-29T00:03:12.890Z,945.01
2023-04-29T00:03:25.012Z,944.98
2023-04-29T00:03:36.904Z,944.97
2023-04-29T00:03:47.987Z,944.97
2023-04-29T00:03:58.949Z,944.97
2023-04-29T00:04:09.949Z,944.97
2023-04-29T00:04:21.889Z,944.97
2023-04-29T00:04:33.964Z,944.98
2023-04-29T00:04:45.906Z,944.99
2023-04-29T00:04:56.799Z,944.98
2023-04-29T00:05:07.926Z,944.96
2023-04-29T00:05:18.910Z,944.95
2023-04-29T00:05:29.794Z,944.95
2023-04-29T00:05:40.768Z,944.94
2023-04-29T00:05:51.884Z,944.93
2023-04-29T00:06:03.097Z,944.93
2023-04-29T00:06:15.020Z,944.95
2023-04-29T00:06:26.916Z,944.95
2023-04-29T00:06:37.750Z,944.94
2023-04-29T00:06:48.727Z,944.94
2023-04-29T00:06:59.723Z,944.94
2023-04-29T00:07:10.734Z,944.94
2023-04-29T00:07:21.721Z,944.93
2023-04-29T00:07:32.713Z,944.92
2023-04-29T00:07:43.697Z,944.91
2023-04-29T00:07:54.707Z,944.91
2023-04-29T00:08:05.789Z,944.92
2023-04-29T00:08:17.742Z,944.91
2023-04-29T00:08:28.728Z,944.90
2023-04-29T00:08:40.719Z,944.88
2023-04-29T00:08:51.701Z,944.88
2023-04-29T00:09:02.744Z,944.88
2023-04-29T00:09:13.719Z,944.89
2023-04-29T00:09:24.724Z,944.89
2023-04-29T00:09:35.731Z,944.90
2023-04-29T00:09:46.725Z,944.90
2023-04-29T00:09:57.708Z,944.90
2023-04-29T00:10:08.797Z,944.90
2023-04-29T00:10:20.764Z,944.91
2023-04-29T00:10:31.751Z,944.90
2023-04-29T00:10:42.758Z,944.89
2023-04-29T00:10:53.799Z,944.88
2023-04-29T00:11:04.717Z,944.86
2023-04-29T00:11:15.721Z,944.86
2023-04-29T00:11:26.724Z,944.85
2023-04-29T00:11:37.728Z,944.86
2023-04-29T00:11:48.732Z,944.87
2023-04-29T00:11:59.731Z,944.88
2023-04-29T00:12:10.729Z,944.89
2023-04-29T00:12:21.728Z,944.89
2023-04-29T00:12:32.746Z,944.89
2023-04-29T00:12:43.750Z,944.89
2023-04-29T00:12:54.748Z,944.89
2023-04-29T00:13:05.736Z,944.89
2023-04-29T00:13:16.754Z,944.91
2023-04-29T00:13:27.753Z,944.90
2023-04-29T00:13:38.735Z,944.88
2023-04-29T00:13:49.740Z,944.86
2023-04-29T00:14:00.726Z,944.86
2023-04-29T00:14:11.740Z,944.87
2023-04-29T00:14:22.725Z,944.87
2023-04-29T00:14:33.718Z,944.88
2023-04-29T00:14:44.746Z,944.89
2023-04-29T00:14:55.750Z,944.88
2023-04-29T00:15:06.767Z,944.88
2023-04-29T00:15:17.748Z,944.87
2023-04-29T00:15:28.724Z,944.87
2023-04-29T00:15:39.748Z,944.86
2023-04-29T00:15:51.739Z,944.87
2023-04-29T00:16:02.729Z,944.86
2023-04-29T00:16:14.727Z,944.86
2023-04-29T00:16:25.853Z,944.87
2023-04-29T00:16:37.887Z,944.88
2023-04-29T00:16:49.772Z,944.86
2023-04-29T00:17:01.816Z,944.86
2023-04-29T00:17:13.848Z,944.87
2023-04-29T00:17:25.894Z,944.87
2023-04-29T00:17:37.817Z,944.88
2023-04-29T00:17:48.775Z,944.90
2023-04-29T00:18:00.743Z,944.90
2023-04-29T00:18:11.740Z,944.88
2023-04-29T00:18:22.721Z,944.87
2023-04-29T00:18:33.718Z,944.85
2023-04-29T00:18:44.715Z,944.85
2023-04-29T00:18:55.713Z,944.84
2023-04-29T00:19:06.748Z,944.84
2023-04-29T00:19:17.735Z,944.85
2023-04-29T00:19:28.731Z,944.85
2023-04-29T00:19:39.758Z,944.85
2023-04-29T00:19:51.907Z,944.86
2023-04-29T00:20:02.755Z,944.86
2023-04-29T00:20:13.785Z,944.84
2023-04-29T00:20:25.822Z,944.84
2023-04-29T00:20:36.716Z,944.84
2023-04-29T00:20:47.729Z,944.86
2023-04-29T00:20:58.727Z,944.86
2023-04-29T00:21:09.784Z,944.87
2023-04-29T00:21:21.746Z,944.87
2023-04-29T00:21:32.727Z,944.86
2023-04-29T00:21:43.723Z,944.87
2023-04-29T00:21:54.730Z,944.88
2023-04-29T00:22:05.712Z,944.88
2023-04-29T00:22:16.714Z,944.88
2023-04-29T00:22:27.699Z,944.88
2023-04-29T00:22:38.702Z,944.89
2023-04-29T00:22:49.791Z,944.89
2023-04-29T00:23:01.739Z,944.89
2023-04-29T00:23:12.740Z,944.89
2023-04-29T00:23:24.727Z,944.90
2023-04-29T00:23:35.745Z,944.89
2023-04-29T00:23:46.751Z,944.88
2023-04-29T00:23:57.744Z,944.88
2023-04-29T00:24:08.732Z,944.88
2023-04-29T00:24:19.754Z,944.88
2023-04-29T00:24:30.750Z,944.89
2023-04-29T00:24:42.761Z,944.89
2023-04-29T00:24:54.724Z,944.88
2023-04-29T00:25:05.708Z,944.88
2023-04-29T00:25:16.698Z,944.88
2023-04-29T00:25:27.778Z,944.88
2023-04-29T00:25:39.733Z,944.89
2023-04-29T00:25:51.735Z,944.89
2023-04-29T00:26:02.737Z,944.87
2023-04-29T00:26:13.729Z,944.89
2023-04-29T00:26:24.714Z,944.90
2023-04-29T00:26:35.720Z,944.90
2023-04-29T00:26:46.725Z,944.87
2023-04-29T00:26:57.717Z,944.87
2023-04-29T00:27:08.700Z,944.88
2023-04-29T00:27:19.700Z,944.90
2023-04-29T00:27:30.786Z,944.90
2023-04-29T00:27:42.734Z,944.91
2023-04-29T00:27:53.740Z,944.91
2023-04-29T00:28:05.741Z,944.92
2023-04-29T00:28:16.730Z,944.90
2023-04-29T00:28:27.728Z,944.88
2023-04-29T00:28:38.730Z,944.88
2023-04-29T00:28:49.739Z,944.89
2023-04-29T00:29:00.721Z,944.88
2023-04-29T00:29:11.714Z,944.89
2023-04-29T00:29:22.722Z,944.90
2023-04-29T00:29:33.760Z,944.88
2023-04-29T00:29:45.736Z,944.88
2023-04-29T00:29:56.727Z,944.88
2023-04-29T00:30:07.731Z,944.89
2023-04-29T00:30:18.746Z,944.89
2023-04-29T00:30:29.742Z,944.89
2023-04-29T00:30:40.794Z,944.89
2023-04-29T00:30:51.742Z,944.89
2023-04-29T00:31:03.756Z,944.90
2023-04-29T00:31:15.781Z,944.89
2023-04-29T00:31:26.708Z,944.90
2023-04-29T00:31:38.074Z,944.90
2023-04-29T00:31:48.702Z,944.90
2023-04-29T00:31:59.782Z,944.90
2023-04-29T00:32:10.764Z,944.90
2023-04-29T00:32:22.817Z,944.90
2023-04-29T00:32:34.777Z,944.90
2023-04-29T00:32:45.770Z,944.90
2023-04-29T00:32:56.885Z,944.90
2023-04-29T00:33:08.769Z,944.90
2023-04-29T00:33:19.789Z,944.90
2023-04-29T00:33:31.753Z,944.89
2023-04-29T00:33:42.737Z,944.89
2023-04-29T00:33:53.727Z,944.89
2023-04-29T00:34:04.720Z,944.91
2023-04-29T00:34:15.724Z,944.92
2023-04-29T00:34:26.720Z,944.90
2023-04-29T00:34:37.789Z,944.89
2023-04-29T00:34:49.781Z,944.88
2023-04-29T00:35:01.727Z,944.88
2023-04-29T00:35:12.721Z,944.87
2023-04-29T00:35:23.742Z,944.85
2023-04-29T00:35:34.837Z,944.88
2023-04-29T00:35:46.720Z,944.89
2023-04-29T00:35:57.712Z,944.90
2023-04-29T00:36:08.706Z,944.91
2023-04-29T00:36:19.699Z,944.90
2023-04-29T00:36:30.791Z,944.90
2023-04-29T00:36:42.742Z,944.90
2023-04-29T00:36:53.745Z,944.90
2023-04-29T00:37:04.741Z,944.90
2023-04-29T00:37:15.766Z,944.89
2023-04-29T00:37:26.759Z,944.88
2023-04-29T00:37:37.754Z,944.88
2023-04-29T00:37:48.763Z,944.88
2023-04-29T00:38:00.744Z,944.88
2023-04-29T00:38:11.738Z,944.89
2023-04-29T00:38:22.730Z,944.89
2023-04-29T00:38:33.756Z,944.90
2023-04-29T00:38:44.730Z,944.91
2023-04-29T00:38:55.755Z,944.91
2023-04-29T00:39:06.747Z,944.91
2023-04-29T00:39:17.737Z,944.91
2023-04-29T00:39:28.731Z,944.91
2023-04-29T00:39:39.724Z,944.92
2023-04-29T00:39:50.944Z,944.94
2023-04-29T00:40:01.727Z,944.90
2023-04-29T00:40:12.707Z,944.89
2023-04-29T00:40:23.706Z,944.90
2023-04-29T00:40:34.794Z,944.89
2023-04-29T00:40:46.759Z,944.87
2023-04-29T00:40:57.773Z,944.88
2023-04-29T00:41:08.753Z,944.89
2023-04-29T00:41:19.756Z,944.91
2023-04-29T00:41:30.735Z,944.91
2023-04-29T00:41:41.739Z,944.90
2023-04-29T00:41:52.741Z,944.91
2023-04-29T00:42:03.750Z,944.91
2023-04-29T00:42:14.731Z,944.92
2023-04-29T00:42:25.745Z,944.92
2023-04-29T00:42:36.735Z,944.92
2023-04-29T00:42:47.745Z,944.93
2023-04-29T00:42:59.746Z,944.92
2023-04-29T00:43:10.750Z,944.91
2023-04-29T00:43:21.773Z,944.89
2023-04-29T00:43:33.757Z,944.90
2023-04-29T00:43:44.761Z,944.92
2023-04-29T00:43:55.759Z,944.93
2023-04-29T00:44:06.750Z,944.93
2023-04-29T00:44:17.748Z,944.94
2023-04-29T00:44:28.736Z,944.94
2023-04-29T00:44:39.808Z,944.94
2023-04-29T00:44:50.699Z,944.95
2023-04-29T00:45:01.791Z,944.93
2023-04-29T00:45:13.755Z,944.92
2023-04-29T00:45:24.788Z,944.91
2023-04-29T00:45:36.736Z,944.93
2023-04-29T00:45:47.732Z,944.93
2023-04-29T00:45:58.737Z,944.93
2023-04-29T00:46:09.768Z,944.93
2023-04-29T00:46:20.731Z,944.95
2023-04-29T00:46:31.814Z,944.96
2023-04-29T00:46:43.857Z,944.93
2023-04-29T00:46:55.771Z,944.94
2023-04-29T00:47:07.727Z,944.97
2023-04-29T00:47:18.725Z,944.98
2023-04-29T00:47:29.757Z,944.98
2023-04-29T00:47:40.794Z,944.97
2023-04-29T00:47:52.996Z,944.96
2023-04-29T00:48:04.772Z,944.96
2023-04-29T00:48:16.754Z,944.95
2023-04-29T00:48:27.793Z,944.96
2023-04-29T00:48:39.763Z,944.97
2023-04-29T00:48:50.724Z,944.97
2023-04-29T00:49:01.728Z,944.98
2023-04-29T00:49:12.724Z,944.98
2023-04-29T00:49:23.725Z,944.98
2023-04-29T00:49:34.737Z,944.99
2023-04-29T00:49:45.723Z,944.99
2023-04-29T00:49:57.738Z,944.94
2023-04-29T00:50:09.757Z,944.94
2023-04-29T00:50:20.740Z,944.96
2023-04-29T00:50:31.733Z,944.97
2023-04-29T00:50:42.740Z,944.96
2023-04-29T00:50:53.759Z,944.95
2023-04-29T00:51:04.749Z,944.96
2023-04-29T00:51:15.755Z,944.97
2023-04-29T00:51:26.760Z,944.97
2023-04-29T00:51:37.750Z,944.97
2023-04-29T00:51:48.744Z,944.98
2023-04-29T00:51:59.749Z,944.97
2023-04-29T00:52:10.744Z,944.97
2023-04-29T00:52:21.725Z,944.98
2023-04-29T00:52:32.712Z,944.98
2023-04-29T00:52:43.710Z,944.98
2023-04-29T00:52:54.710Z,945.00
2023-04-29T00:53:05.793Z,945.01
2023-04-29T00:53:17.758Z,945.00
2023-04-29T00:53:28.759Z,945.00
2023-04-29T00:53:40.758Z,945.02
2023-04-29T00:53:52.725Z,945.02
2023-04-29T00:54:03.754Z,945.02
2023-04-29T00:54:14.751Z,945.03
2023-04-29T00:54:25.765Z,945.03
2023-04-29T00:54:36.762Z,945.03
2023-04-29T00:54:47.758Z,945.02
2023-04-29T00:54:58.741Z,945.02
2023-04-29T00:55:09.742Z,945.02
2023-04-29T00:55:20.746Z,945.02
2023-04-29T00:55:31.742Z,945.02
2023-04-29T00:55:42.732Z,945.02
2023-04-29T00:55:53.715Z,945.04
2023-04-29T00:56:04.692Z,945.03
2023-04-29T00:56:15.788Z,945.04
2023-04-29T00:56:27.738Z,945.05
2023-04-29T00:56:38.728Z,945.05
2023-04-29T00:56:49.721Z,945.04
2023-04-29T00:57:00.731Z,945.04
2023-04-29T00:57:11.721Z,945.01
2023-04-29T00:57:22.721Z,945.00
2023-04-29T00:57:33.723Z,945.01
2023-04-29T00:57:44.707Z,945.02
2023-04-29T00:57:55.714Z,945.04
2023-04-29T00:58:06.693Z,945.03
2023-04-29T00:58:17.794Z,945.03
2023-04-29T00:58:29.769Z,945.04
2023-04-29T00:58:41.732Z,945.03
2023-04-29T00:58:52.716Z,945.03
2023-04-29T00:59:03.706Z,945.04
2023-04-29T00:59:14.801Z,945.04
2023-04-29T00:59:26.771Z,945.04
2023-04-29T00:59:38.734Z,945.04
2023-04-29T00:59:49.758Z,945.04
2023-04-29T01:00:01.722Z,945.06
2023-04-29T01:00:12.703Z,945.07
2023-04-29T01:00:23.708Z,945.05
2023-04-29T01:00:34.794Z,945.07
2023-04-29T01:00:46.756Z,945.06
2023-04-29T01:00:57.750Z,945.03
2023-04-29T01:01:08.789Z,945.03
2023-04-29T01:01:19.762Z,945.04
2023-04-29T01:01:30.764Z,945.05
2023-04-29T01:01:42.753Z,945.04
2023-04-29T01:01:53.895Z,945.04
2023-04-29T01:02:05.723Z,945.04
2023-04-29T01:02:16.711Z,945.04
2023-04-29T01:02:27.743Z,945.05
2023-04-29T01:02:39.788Z,945.04
2023-04-29T01:02:50.789Z,945.03
2023-04-29T01:03:01.897Z,945.03
2023-04-29T01:03:12.869Z,945.04
2023-04-29T01:03:23.962Z,945.04
2023-04-29T01:03:35.864Z,945.04
2023-04-29T01:03:46.983Z,945.05
2023-04-29T01:03:57.957Z,945.04
2023-04-29T01:04:08.979Z,945.05
2023-04-29T01:04:20.783Z,945.07
2023-04-29T01:04:32.856Z,945.07
2023-04-29T01:04:43.790Z,945.07
2023-04-29T01:04:55.813Z,945.08
2023-04-29T01:05:07.740Z,945.07
2023-04-29T01:05:18.748Z,945.06
2023-04-29T01:05:29.776Z,945.05
2023-04-29T01:05:40.764Z,945.06
2023-04-29T01:05:52.730Z,945.07
2023-04-29T01:06:03.708Z,945.08
2023-04-29T01:06:14.794Z,945.08
2023-04-29T01:06:26.754Z,945.08
2023-04-29T01:06:37.736Z,945.09
2023-04-29T01:06:48.715Z,945.11
2023-04-29T01:06:59.703Z,945.12
2023-04-29T01:07:10.785Z,945.13
2023-04-29T01:07:22.738Z,945.11
2023-04-29T01:07:33.733Z,945.10
2023-04-29T01:07:44.728Z,945.09
2023-04-29T01:07:55.706Z,945.09
2023-04-29T01:08:06.745Z,945.09
2023-04-29T01:08:18.671Z,945.10
2023-04-29T01:08:28.733Z,945.10
2023-04-29T01:08:39.720Z,945.10
2023-04-29T01:08:50.740Z,945.10
2023-04-29T01:09:02.732Z,945.11
2023-04-29T01:09:13.725Z,945.11
2023-04-29T01:09:24.711Z,945.11
2023-04-29T01:09:35.798Z,945.11
2023-04-29T01:09:47.759Z,945.12
2023-04-29T01:09:58.742Z,945.13
2023-04-29T01:10:09.837Z,945.12
2023-04-29T01:10:20.730Z,945.08
2023-04-29T01:10:31.724Z,945.09
2023-04-29T01:10:42.712Z,945.09
2023-04-29T01:10:53.723Z,945.09
2023-04-29T01:11:04.711Z,945.08
2023-04-29T01:11:15.701Z,945.08
2023-04-29T01:11:26.785Z,945.07
2023-04-29T01:11:38.739Z,945.06
2023-04-29T01:11:49.750Z,945.06
2023-04-29T01:12:00.747Z,945.07
2023-04-29T01:12:11.732Z,945.08
2023-04-29T01:12:22.722Z,945.09
2023-04-29T01:12:33.768Z,945.09
2023-04-29T01:12:45.772Z,945.09
2023-04-29T01:12:57.721Z,945.10
2023-04-29T01:13:08.733Z,945.11
2023-04-29T01:13:19.730Z,945.12
2023-04-29T01:13:30.708Z,945.12
2023-04-29T01:13:41.704Z,945.12
2023-04-29T01:13:52.702Z,945.12
2023-04-29T01:14:03.711Z,945.11
2023-04-29T01:14:14.705Z,945.12
2023-04-29T01:14:25.700Z,945.11
2023-04-29T01:14:36.700Z,945.11
2023-04-29T01:14:47.707Z,945.12
2023-04-29T01:14:58.713Z,945.14
2023-04-29T01:15:09.705Z,945.15
2023-04-29T01:15:20.703Z,945.16
2023-04-29T01:15:31.810Z,945.17
2023-04-29T01:15:43.864Z,945.18
2023-04-29T01:15:55.818Z,945.17
2023-04-29T01:16:06.778Z,945.15
2023-04-29T01:16:17.823Z,945.10
2023-04-29T01:16:28.748Z,945.10
2023-04-29T01:16:40.803Z,945.14
2023-04-29T01:16:51.737Z,945.17
2023-04-29T01:17:02.749Z,945.19
2023-04-29T01:17:13.734Z,945.19
2023-04-29T01:17:24.755Z,945.19
2023-04-29T01:17:36.733Z,945.21
2023-04-29T01:17:47.754Z,945.20
2023-04-29T01:17:58.800Z,945.21
2023-04-29T01:18:10.787Z,945.18
2023-04-29T01:18:22.748Z,945.15
2023-04-29T01:18:33.727Z,945.14
2023-04-29T01:18:44.705Z,945.14
2023-04-29T01:18:55.740Z,945.16
2023-04-29T01:19:06.730Z,945.13
2023-04-29T01:19:17.765Z,945.12
2023-04-29T01:19:29.741Z,945.12
2023-04-29T01:19:40.734Z,945.14
2023-04-29T01:19:51.992Z,945.16
2023-04-29T01:20:02.724Z,945.16
2023-04-29T01:20:13.727Z,945.16
2023-04-29T01:20:24.762Z,945.15
2023-04-29T01:20:35.746Z,945.16
2023-04-29T01:20:46.751Z,945.18
2023-04-29T01:20:57.739Z,945.18
2023-04-29T01:21:08.731Z,945.19
2023-04-29T01:21:19.719Z,945.18
2023-04-29T01:21:30.715Z,945.16
2023-04-29T01:21:41.693Z,945.17
2023-04-29T01:21:52.723Z,945.20
2023-04-29T01:22:04.730Z,945.20
2023-04-29T01:22:15.722Z,945.17
2023-04-29T01:22:26.720Z,945.17
2023-04-29T01:22:37.706Z,945.17
2023-04-29T01:22:48.702Z,945.18
2023-04-29T01:22:59.697Z,945.20
2023-04-29T01:23:10.800Z,945.19
2023-04-29T01:23:22.765Z,945.17
2023-04-29T01:23:33.740Z,945.16
2023-04-29T01:23:45.783Z,945.18
2023-04-29T01:23:57.759Z,945.20
2023-04-29T01:24:08.749Z,945.20
2023-04-29T01:24:19.750Z,945.21
2023-04-29T01:24:30.741Z,945.21
2023-04-29T01:24:41.721Z,945.22
2023-04-29T01:24:52.729Z,945.21
2023-04-29T01:25:03.712Z,945.20
2023-04-29T01:25:14.710Z,945.21
2023-04-29T01:25:25.698Z,945.21
2023-04-29T01:25:36.812Z,945.20
2023-04-29T01:25:48.730Z,945.18
2023-04-29T01:25:59.728Z,945.17
2023-04-29T01:26:10.728Z,945.18
2023-04-29T01:26:21.712Z,945.18
2023-04-29T01:26:32.709Z,945.19
2023-04-29T01:26:43.789Z,945.20
2023-04-29T01:26:55.799Z,945.20
2023-04-29T01:27:07.745Z,945.21
2023-04-29T01:27:18.740Z,945.23
2023-04-29T01:27:29.782Z,945.26
2023-04-29T01:27:41.748Z,945.25
2023-04-29T01:27:52.737Z,945.24
2023-04-29T01:28:03.717Z,945.20
2023-04-29T01:28:14.719Z,945.19
2023-04-29T01:28:25.724Z,945.21
2023-04-29T01:28:36.731Z,945.19
2023-04-29T01:28:47.723Z,945.20
2023-04-29T01:28:58.711Z,945.20
2023-04-29T01:29:09.698Z,945.21
2023-04-29T01:29:20.778Z,945.21
2023-04-29T01:29:32.795Z,945.18
2023-04-29T01:29:43.717Z,945.17
2023-04-29T01:29:54.796Z,945.19
2023-04-29T01:30:05.729Z,945.19
2023-04-29T01:30:16.728Z,945.19
2023-04-29T01:30:27.722Z,945.22
2023-04-29T01:30:38.725Z,945.25
2023-04-29T01:30:49.723Z,945.26
2023-04-29T01:31:00.719Z,945.23
2023-04-29T01:31:11.785Z,945.20
2023-04-29T01:31:23.772Z,945.20
2023-04-29T01:31:35.792Z,945.21
2023-04-29T01:31:46.753Z,945.18
2023-04-29T01:31:57.916Z,945.19
2023-04-29T01:32:08.727Z,945.19
2023-04-29T01:32:19.723Z,945.19
2023-04-29T01:32:31.999Z,945.20
2023-04-29T01:32:42.821Z,945.23
2023-04-29T01:32:53.818Z,945.24
2023-04-29T01:33:04.784Z,945.23
2023-04-29T01:33:15.714Z,945.21
2023-04-29T01:33:26.701Z,945.22
2023-04-29T01:33:37.696Z,945.21
2023-04-29T01:33:48.780Z,945.21
2023-04-29T01:34:00.734Z,945.23
2023-04-29T01:34:11.750Z,945.26
2023-04-29T01:34:22.756Z,945.23
2023-04-29T01:34:34.734Z,945.20
2023-04-29T01:34:45.732Z,945.22
2023-04-29T01:34:56.730Z,945.21
2023-04-29T01:35:07.730Z,945.22
2023-04-29T01:35:18.710Z,945.21
2023-04-29T01:35:29.798Z,945.22
2023-04-29T01:35:41.772Z,945.22
2023-04-29T01:35:52.760Z,945.22
2023-04-29T01:36:03.759Z,945.21
2023-04-29T01:36:15.734Z,945.21
2023-04-29T01:36:26.717Z,945.20
2023-04-29T01:36:37.701Z,945.21
2023-04-29T01:36:48.713Z,945.22
2023-04-29T01:36:59.697Z,945.21
2023-04-29T01:37:10.699Z,945.22
2023-04-29T01:37:21.783Z,945.23
2023-04-29T01:37:33.756Z,945.21
2023-04-29T01:37:44.758Z,945.21
2023-04-29T01:37:55.735Z,945.22
2023-04-29T01:38:06.788Z,945.22
2023-04-29T01:38:18.742Z,945.24
2023-04-29T01:38:29.729Z,945.22
2023-04-29T01:38:40.720Z,945.22
2023-04-29T01:38:51.717Z,945.21
2023-04-29T01:39:02.718Z,945.21
2023-04-29T01:39:13.752Z,945.22
2023-04-29T01:39:24.740Z,945.22
2023-04-29T01:39:36.721Z,945.21
2023-04-29T01:39:47.720Z,945.21
2023-04-29T01:39:58.740Z,945.23
2023-04-29T01:40:09.715Z,945.24
2023-04-29T01:40:20.699Z,945.26
2023-04-29T01:40:31.716Z,945.27
2023-04-29T01:40:42.794Z,945.26
2023-04-29T01:40:54.748Z,945.24
2023-04-29T01:41:05.757Z,945.22
2023-04-29T01:41:16.754Z,945.23
2023-04-29T01:41:27.749Z,945.23
2023-04-29T01:41:38.747Z,945.24
2023-04-29T01:41:49.738Z,945.23
2023-04-29T01:42:00.732Z,945.23
2023-04-29T01:42:11.741Z,945.25
2023-04-29T01:42:22.738Z,945.25
2023-04-29T01:42:33.723Z,945.26
2023-04-29T01:42:44.717Z,945.28
2023-04-29T01:42:55.713Z,945.24
2023-04-29T01:43:06.704Z,945.22
2023-04-29T01:43:17.794Z,945.21
2023-04-29T01:43:29.762Z,945.26
2023-04-29T01:43:40.750Z,945.24
2023-04-29T01:43:51.747Z,945.22
2023-04-29T01:44:03.738Z,945.21
2023-04-29T01:44:14.732Z,945.21
2023-04-29T01:44:25.763Z,945.23
2023-04-29T01:44:36.757Z,945.26
2023-04-29T01:44:47.741Z,945.24
2023-04-29T01:44:58.734Z,945.23
2023-04-29T01:45:09.734Z,945.21
2023-04-29T01:45:20.711Z,945.25
2023-04-29T01:45:31.719Z,945.23
2023-04-29T01:45:42.707Z,945.20
2023-04-29T01:45:53.695Z,945.20
2023-04-29T01:46:04.731Z,945.23
2023-04-29T01:46:15.739Z,945.27
2023-04-29T01:46:26.769Z,945.25
2023-04-29T01:46:37.770Z,945.23
2023-04-29T01:46:49.737Z,945.25
2023-04-29T01:47:00.798Z,945.24
2023-04-29T01:47:11.713Z,945.24
2023-04-29T01:47:23.786Z,945.24
2023-04-29T01:47:34.806Z,945.26
2023-04-29T01:47:46.788Z,945.26
2023-04-29T01:47:58.906Z,945.27
2023-04-29T01:48:09.757Z,945.28
2023-04-29T01:48:21.737Z,945.31
2023-04-29T01:48:32.722Z,945.31
2023-04-29T01:48:43.758Z,945.29
2023-04-29T01:48:54.761Z,945.27
2023-04-29T01:49:06.739Z,945.26
2023-04-29T01:49:17.721Z,945.29
2023-04-29T01:49:28.760Z,945.31
2023-04-29T01:49:39.755Z,945.27
2023-04-29T01:49:51.157Z,945.24
2023-04-29T01:50:01.745Z,945.26
2023-04-29T01:50:12.724Z,945.26
2023-04-29T01:50:23.731Z,945.26
2023-04-29T01:50:34.730Z,945.26
2023-04-29T01:50:45.730Z,945.27
2023-04-29T01:50:56.732Z,945.28
2023-04-29T01:51:07.728Z,945.30
2023-04-29T01:51:18.746Z,945.29
2023-04-29T01:51:30.743Z,945.28
2023-04-29T01:51:41.738Z,945.29
2023-04-29T01:51:52.723Z,945.30
2023-04-29T01:52:03.714Z,945.31
2023-04-29T01:52:14.709Z,945.31
2023-04-29T01:52:25.702Z,945.30
2023-04-29T01:52:36.697Z,945.29
2023-04-29T01:52:47.788Z,945.30
2023-04-29T01:52:59.729Z,945.30
2023-04-29T01:53:10.708Z,945.30
2023-04-29T01:53:21.781Z,945.29
2023-04-29T01:53:33.745Z,945.26
2023-04-29T01:53:44.733Z,945.25
2023-04-29T01:53:55.734Z,945.26
2023-04-29T01:54:06.735Z,945.27
2023-04-29T01:54:17.728Z,945.27
2023-04-29T01:54:28.710Z,945.28
2023-04-29T01:54:39.710Z,945.27
2023-04-29T01:54:50.725Z,945.29
2023-04-29T01:55:01.745Z,945.27
2023-04-29T01:55:12.756Z,945.28
2023-04-29T01:55:23.755Z,945.28
2023-04-29T01:55:34.751Z,945.27
2023-04-29T01:55:45.759Z,945.27
2023-04-29T01:55:57.729Z,945.27
2023-04-29T01:56:08.720Z,945.26
2023-04-29T01:56:19.705Z,945.26
2023-04-29T01:56:30.792Z,945.27
2023-04-29T01:56:42.743Z,945.29
2023-04-29T01:56:53.730Z,945.29
2023-04-29T01:57:04.713Z,945.27
2023-04-29T01:57:15.702Z,945.26
2023-04-29T01:57:26.716Z,945.27
2023-04-29T01:57:37.724Z,945.31
2023-04-29T01:57:48.705Z,945.31
2023-04-29T01:57:59.784Z,945.27
2023-04-29T01:58:11.748Z,945.27
2023-04-29T01:58:22.736Z,945.27
2023-04-29T01:58:33.731Z,945.27
2023-04-29T01:58:44.731Z,945.28
2023-04-29T01:58:55.733Z,945.28
2023-04-29T01:59:06.725Z,945.27
2023-04-29T01:59:17.711Z,945.27
2023-04-29T01:59:30.271Z,945.28
2023-04-29T01:59:39.781Z,945.29
2023-04-29T01:59:51.991Z,945.32
2023-04-29T02:00:03.736Z,945.30
2023-04-29T02:00:14.731Z,945.27
2023-04-29T02:00:25.710Z,945.28
2023-04-29T02:00:36.765Z,945.28
2023-04-29T02:00:47.802Z,945.31
2023-04-29T02:00:58.770Z,945.31
2023-04-29T02:01:10.792Z,945.31
2023-04-29T02:01:22.776Z,945.31
2023-04-29T02:01:34.740Z,945.31
2023-04-29T02:01:45.736Z,945.31
2023-04-29T02:01:56.706Z,945.30
2023-04-29T02:02:07.726Z,945.30
2023-04-29T02:02:18.745Z,945.31
2023-04-29T02:02:29.772Z,945.32
2023-04-29T02:02:40.816Z,945.30
2023-04-29T02:02:52.785Z,945.29
2023-04-29T02:03:04.780Z,945.29
2023-04-29T02:03:16.781Z,945.28
2023-04-29T02:03:27.796Z,945.29
2023-04-29T02:03:39.886Z,945.29
2023-04-29T02:03:51.826Z,945.29
2023-04-29T02:04:02.804Z,945.30
2023-04-29T02:04:14.749Z,945.30
2023-04-29T02:04:25.828Z,945.31
2023-04-29T02:04:36.808Z,945.31
2023-04-29T02:04:47.742Z,945.30
2023-04-29T02:04:59.106Z,945.30
2023-04-29T02:05:09.747Z,945.30
2023-04-29T02:05:20.776Z,945.31
2023-04-29T02:05:32.744Z,945.31
2023-04-29T02:05:43.758Z,945.33
2023-04-29T02:05:55.725Z,945.34
2023-04-29T02:06:06.733Z,945.35
2023-04-29T02:06:17.753Z,945.34
2023-04-29T02:06:28.755Z,945.34
2023-04-29T02:06:39.740Z,945.34
2023-04-29T02:06:50.718Z,945.34
2023-04-29T02:07:01.714Z,945.36
2023-04-29T02:07:12.713Z,945.36
2023-04-29T02:07:23.714Z,945.33
2023-04-29T02:07:34.705Z,945.33
2023-04-29T02:07:45.708Z,945.36
2023-04-29T02:07:56.712Z,945.36
2023-04-29T02:08:07.719Z,945.32
2023-04-29T02:08:18.728Z,945.32
2023-04-29T02:08:29.719Z,945.34
2023-04-29T02:08:40.704Z,945.34
2023-04-29T02:08:51.709Z,945.35
2023-04-29T02:09:02.709Z,945.33
2023-04-29T02:09:13.699Z,945.32
2023-04-29T02:09:24.796Z,945.31
2023-04-29T02:09:36.759Z,945.31
2023-04-29T02:09:48.737Z,945.31
2023-04-29T02:09:59.744Z,945.32
2023-04-29T02:10:10.720Z,945.31
2023-04-29T02:10:21.720Z,945.32
2023-04-29T02:10:32.705Z,945.32
2023-04-29T02:10:43.797Z,945.35
2023-04-29T02:10:55.765Z,945.37
2023-04-29T02:11:07.738Z,945.38
2023-04-29T02:11:18.728Z,945.39
2023-04-29T02:11:29.761Z,945.38
2023-04-29T02:11:40.788Z,945.38
2023-04-29T02:11:52.769Z,945.37
2023-04-29T02:12:04.756Z,945.39
2023-04-29T02:12:16.726Z,945.37
2023-04-29T02:12:27.725Z,945.36
2023-04-29T02:12:38.715Z,945.36
2023-04-29T02:12:49.698Z,945.35
2023-04-29T02:13:00.788Z,945.33
2023-04-29T02:13:12.753Z,945.33
2023-04-29T02:13:23.750Z,945.35
2023-04-29T02:13:34.737Z,945.35
2023-04-29T02:13:45.718Z,945.36
2023-04-29T02:13:56.720Z,945.36
2023-04-29T02:14:07.735Z,945.36
2023-04-29T02:14:19.756Z,945.35
2023-04-29T02:14:30.743Z,945.35
2023-04-29T02:14:41.726Z,945.35
2023-04-29T02:14:52.716Z,945.35
2023-04-29T02:15:03.733Z,945.36
2023-04-29T02:15:14.729Z,945.38
2023-04-29T02:15:25.730Z,945.37
2023-04-29T02:15:36.752Z,945.37
2023-04-29T02:15:47.736Z,945.38
2023-04-29T02:15:58.786Z,945.38
2023-04-29T02:16:10.780Z,945.38
2023-04-29T02:16:22.874Z,945.39
2023-04-29T02:16:34.799Z,945.40
2023-04-29T02:16:46.821Z,945.39
2023-04-29T02:16:57.747Z,945.38
2023-04-29T02:17:08.741Z,945.38
2023-04-29T02:17:19.778Z,945.38
2023-04-29T02:17:30.789Z,945.39
2023-04-29T02:17:41.743Z,945.39
2023-04-29T02:17:52.794Z,945.39
2023-04-29T02:18:03.798Z,945.40
2023-04-29T02:18:14.802Z,945.38
2023-04-29T02:18:26.755Z,945.39
2023-04-29T02:18:38.726Z,945.39
2023-04-29T02:18:49.720Z,945.42
2023-04-29T02:19:00.707Z,945.44
2023-04-29T02:19:11.788Z,945.43
2023-04-29T02:19:23.758Z,945.42
2023-04-29T02:19:35.747Z,945.40
2023-04-29T02:19:47.760Z,945.38